DW1872 Islamorada FL US current weather conditions

sailwx.info

Wind from 028 at 6 knots gusting 10

Air temperature 16.7° C
Dewpoint 15.7° C

Last reported at 2020-Jan-23 17:00 UTC.
Time now 2020-Jan-23 17:56 UTC

Location: N 24°55' W 080°38'.
View on Google Maps.

See reports from other nearby stations

  
Tides and Currents Weather Stations Pressure Air Temp Water Temp Dewpoint Dewpoint Depression Visibility Wind Speed Wind Dir Waves Ship Positions
date/time (UTC)wind fromknots sea level pressurealtimeterstation pressurevisibilityair tempwater tempwave heightnotes
2020-Jan-23 17:00 028 6 gusting 10 16.7
2020-Jan-23 16:47 020 6 gusting 10 16.1
2020-Jan-23 16:32 011 6 gusting 11 15.6
2020-Jan-23 16:15 359 6 gusting 11 15.0
2020-Jan-23 16:00 359 7 gusting 10 14.4
2020-Jan-23 15:46 345 6 gusting 10 14.4
2020-Jan-23 15:31 359 6 gusting 10 13.9
2020-Jan-23 15:17 359 5 gusting 10 13.9
2020-Jan-23 15:01 359 5 gusting 9 13.9
2020-Jan-23 14:46 332 6 gusting 10 13.9
2020-Jan-23 14:31 359 5 gusting 8 13.9
2020-Jan-23 14:15 346 6 gusting 9 13.9
2020-Jan-23 14:01 354 6 gusting 10 13.3
2020-Jan-23 13:46 341 7 gusting 12 13.3
2020-Jan-23 13:31 354 5 gusting 12 13.3
2020-Jan-23 13:15 335 6 gusting 12 13.3
2020-Jan-23 13:01 354 7 gusting 12 13.3
2020-Jan-23 12:45 019 7 gusting 10 13.3
2020-Jan-23 12:30 004 6 gusting 11 13.3
2020-Jan-23 12:16 354 6 gusting 10 13.3
2020-Jan-23 12:00 345 7 gusting 11 13.3
2020-Jan-23 11:46 021 6 gusting 10 12.8
2020-Jan-23 11:30 342 6 gusting 8 12.8
2020-Jan-23 11:15 359 7 gusting 11 12.8
2020-Jan-23 11:01 359 8 gusting 11 12.8
2020-Jan-23 10:45 342 6 gusting 11 12.8
2020-Jan-23 10:30 359 9 gusting 13 12.8
2020-Jan-23 10:15 004 8 gusting 14 13.3
2020-Jan-23 10:00 359 6 gusting 12 13.3
2020-Jan-23 09:45 359 9 gusting 14 12.8
2020-Jan-23 09:30 359 8 gusting 15 13.3
2020-Jan-23 09:16 037 8 gusting 14 13.3
2020-Jan-23 09:00 021 9 gusting 14 13.3
2020-Jan-23 08:46 004 9 gusting 13 12.8
2020-Jan-23 08:30 359 6 gusting 12 12.8
2020-Jan-23 08:15 359 8 gusting 12 12.8
2020-Jan-23 08:00 359 6 gusting 11 12.2
2020-Jan-23 07:45 359 6 gusting 10 12.2
2020-Jan-23 07:30 359 9 gusting 14 12.2
2020-Jan-23 07:15 004 10 gusting 13 12.8
2020-Jan-23 07:00 359 9 gusting 13 12.8
2020-Jan-23 06:32 359 8 gusting 13 12.8
2020-Jan-23 06:16 310 7 gusting 13 12.8
2020-Jan-23 06:02 004 8 gusting 15 12.8
2020-Jan-23 05:32 359 10 gusting 14 12.8
2020-Jan-23 05:16 344 8 gusting 14 12.8
2020-Jan-23 05:02 014 10 gusting 16 12.8
2020-Jan-23 04:32 354 11 gusting 16 13.3
2020-Jan-23 04:16 012 8 gusting 15 13.3
2020-Jan-23 04:02 004 9 gusting 15 13.3
2020-Jan-23 03:32 359 11 gusting 19 13.9
2020-Jan-23 03:16 011 9 gusting 16 13.9
2020-Jan-23 03:02 359 10 gusting 17 13.9
2020-Jan-23 02:31 010 12 gusting 16 14.4
2020-Jan-23 02:17 339 9 gusting 16 14.4
2020-Jan-23 02:03 014 11 gusting 18 14.4
2020-Jan-23 01:31 035 8 gusting 14 15.0
2020-Jan-23 01:17 010 9 gusting 16 15.0
2020-Jan-23 01:01 025 11 gusting 17 15.0
2020-Jan-23 00:32 354 11 gusting 16 15.0
2020-Jan-23 00:16 008 10 gusting 15 15.6
2020-Jan-23 00:02 359 8 gusting 13 15.6
2020-Jan-22 23:32 341 10 gusting 15 16.1
2020-Jan-22 23:16 345 7 gusting 12 16.1
2020-Jan-22 23:02 359 8 gusting 13 16.1
2020-Jan-22 22:31 359 10 gusting 13 16.1
2020-Jan-22 22:16 004 9 gusting 13 16.7
2020-Jan-22 22:01 018 11 gusting 15 16.7
2020-Jan-22 21:32 359 10 gusting 15 16.7
2020-Jan-22 21:16 359 10 gusting 16 16.1
2020-Jan-22 21:01 340 11 gusting 16 15.6
2020-Jan-22 20:30 359 12 gusting 17 15.6
2020-Jan-22 20:16 320 11 gusting 17 15.6
2020-Jan-22 20:01 298 10 gusting 16 15.0
2020-Jan-22 19:30 312 9 gusting 15 14.4
2020-Jan-22 19:16 316 8 gusting 16 13.9
2020-Jan-22 19:00 359 6 gusting 15 13.9
2020-Jan-22 18:30 299 8 gusting 13 12.8
2020-Jan-22 18:15 359 11 gusting 16 12.2
2020-Jan-22 18:00 303 8 gusting 16 12.2
2020-Jan-22 17:30 359 13 gusting 19 11.1
2020-Jan-22 17:15 318 14 gusting 19 10.6
2020-Jan-22 17:03 359 13 gusting 19 10.6
2020-Jan-22 16:31 297 11 gusting 18 10.0
2020-Jan-22 16:17 359 12 gusting 19 9.4
2020-Jan-22 16:01 320 12 gusting 19 8.9
2020-Jan-22 15:31 332 13 gusting 19 8.3
2020-Jan-22 15:17 359 11 gusting 18 7.8
2020-Jan-22 15:01 316 8 gusting 17 7.2
2020-Jan-22 14:31 323 12 gusting 18 6.7
2020-Jan-22 14:16 359 13 gusting 18 6.7
2020-Jan-22 14:00 343 12 gusting 17 6.7
2020-Jan-22 13:31 359 13 gusting 20 6.1
2020-Jan-22 13:15 359 13 gusting 21 5.6
2020-Jan-22 13:00 326 12 gusting 19 6.1
2020-Jan-22 12:30 359 13 gusting 20 5.6
2020-Jan-22 12:17 004 14 gusting 22 6.1
2020-Jan-22 12:02 325 16 gusting 23 6.1
2020-Jan-22 11:33 349 16 gusting 23 6.1
2020-Jan-22 11:16 012 16 gusting 26 6.1
2020-Jan-22 11:01 340 16 gusting 24 6.7
2020-Jan-22 10:32 343 17 gusting 26 6.7
2020-Jan-22 10:17 014 18 gusting 29 6.7
2020-Jan-22 10:02 331 19 gusting 29 6.7
2020-Jan-22 09:32 342 19 gusting 28 7.2
2020-Jan-22 09:16 349 18 gusting 27 7.8
2020-Jan-22 09:02 354 19 gusting 28 7.8
2020-Jan-22 08:31 322 18 gusting 26 7.8
2020-Jan-22 08:16 008 16 gusting 26 7.8
2020-Jan-22 08:01 330 17 gusting 27 7.8
2020-Jan-22 07:31 345 17 gusting 26 7.8
2020-Jan-22 07:16 359 13 gusting 27 8.3
2020-Jan-22 07:00 024 16 gusting 24 8.3
2020-Jan-22 06:31 359 15 gusting 25 8.9
2020-Jan-22 06:16 010 14 gusting 26 8.9
2020-Jan-22 06:00 015 18 gusting 22 9.4
2020-Jan-22 05:30 359 18 gusting 26 10.0
2020-Jan-22 05:16 004 17 gusting 26 10.0
2020-Jan-22 05:00 336 15 gusting 23 10.6
2020-Jan-22 04:30 359 16 gusting 25 11.1
2020-Jan-22 04:15 359 18 gusting 27 11.1
2020-Jan-22 04:00 339 19 gusting 26 11.7
2020-Jan-22 03:32 335 17 gusting 26 12.2
2020-Jan-22 03:17 010 19 gusting 28 12.2
2020-Jan-22 03:02 326 19 gusting 29 12.8
2020-Jan-22 02:32 019 18 gusting 26 12.8
2020-Jan-22 02:16 359 18 gusting 27 13.3
2020-Jan-22 02:03 321 18 gusting 27 13.3
2020-Jan-22 01:32 335 19 gusting 24 13.9
2020-Jan-22 01:17 316 19 gusting 27 14.4
2020-Jan-22 01:02 339 16 gusting 25 15.0
2020-Jan-22 00:31 338 15 gusting 24 15.6
2020-Jan-22 00:17 320 14 gusting 24 15.6
2020-Jan-22 00:02 310 15 gusting 22 15.6
2020-Jan-21 23:32 321 16 gusting 23 16.1
2020-Jan-21 23:17 349 15 gusting 23 16.1
2020-Jan-21 23:02 306 12 gusting 23 15.6
2020-Jan-21 22:32 291 12 gusting 20 15.6
2020-Jan-21 22:17 318 13 gusting 22 16.1
2020-Jan-21 22:02 268 15 gusting 24 16.1
2020-Jan-21 21:32 286 13 gusting 20 16.7
2020-Jan-21 21:16 327 12 gusting 19 16.7
2020-Jan-21 21:01 359 11 gusting 18 17.2
2020-Jan-21 20:31 289 12 gusting 19 17.2
2020-Jan-21 20:16 324 10 gusting 19 17.2
2020-Jan-21 20:01 317 11 gusting 17 17.2
2020-Jan-21 19:32 359 10 gusting 17 17.2
2020-Jan-21 19:16 295 9 gusting 15 17.2
2020-Jan-21 19:03 359 9 gusting 19 17.2
2020-Jan-21 18:31 305 10 gusting 16 17.2
2020-Jan-21 18:16 359 9 gusting 15 17.2
2020-Jan-21 18:01 287 10 gusting 16 16.7
2020-Jan-21 17:32 321 8 gusting 15 16.7
2020-Jan-21 17:16 316 9 gusting 16 16.7
2020-Jan-21 17:00 359 10 gusting 17 16.1